LIRP/PSA METAR and TAF weather

Enter ICAO airport designator
Station Type Date Time Source
LIRP METAR 2022/08/12 14:45 UTC NOAA

LIRP 121445Z 29011KT 9999 FEW030 32/13 Q1012 NOSIG


Station Type Date Time Source
LIRP Decoded METAR 2022/08/12 14:45 UTC NOAA

Pisa / S. Giusto, Italy (LIRP) 43-41N 010-23E 6M
Aug 12, 2022 - 10:45 AM EDT / 2022.08.12 1445 UTC
Wind: from the WNW (290 degrees) at 13 MPH (11 KT):0
Visibility: greater than 7 mile(s):0
Sky conditions: mostly clear
Temperature: 89 F (32 C)
Dew Point: 55 F (13 C)
Relative Humidity: 31%
Pressure (altimeter): 29.88 in. Hg (1012 hPa)
ob: LIRP 121445Z 29011KT 9999 FEW030 32/13 Q1012 NOSIG
cycle: 15

Station Type Date Time Source
LIRP TAF 2022/08/12 12:37 UTC NOAA

TAF LIRP 121100Z 1212/1312 28010KT 9999 FEW030 SCT050
BECMG 1221/1223 11008KT SCT030 SCT080 PROB40
TEMPO 1222/1309 SHRA SCT015 BKN030

Example: see airport list